createdAt,value
2018-05-31T00:00:07.332Z,19.60
2018-05-31T00:02:41.414Z,19.60
2018-05-31T00:05:15.545Z,19.60
2018-05-31T00:07:49.717Z,19.60
2018-05-31T00:10:24.545Z,19.60
2018-05-31T00:12:58.514Z,19.60
2018-05-31T00:15:32.436Z,19.60
2018-05-31T00:18:08.222Z,19.60
2018-05-31T00:20:43.111Z,19.50
2018-05-31T00:23:17.260Z,19.50
2018-05-31T00:25:52.027Z,19.50
2018-05-31T00:28:25.964Z,19.50
2018-05-31T00:31:01.203Z,19.50
2018-05-31T00:33:35.565Z,19.50
2018-05-31T00:36:12.137Z,19.50
2018-05-31T00:38:47.774Z,19.50
2018-05-31T00:41:21.674Z,19.50
2018-05-31T00:43:55.803Z,19.50
2018-05-31T00:46:30.053Z,19.50
2018-05-31T00:49:05.216Z,19.50
2018-05-31T00:51:39.333Z,19.50
2018-05-31T00:54:14.775Z,19.50
2018-05-31T00:56:48.879Z,19.50
2018-05-31T00:59:22.976Z,19.50
2018-05-31T01:01:56.908Z,19.40
2018-05-31T01:04:32.150Z,19.30
2018-05-31T01:07:10.415Z,19.30
2018-05-31T01:09:45.010Z,19.30
2018-05-31T01:12:19.303Z,19.30
2018-05-31T01:14:53.338Z,19.30
2018-05-31T01:17:27.378Z,19.30
2018-05-31T01:20:01.590Z,19.40
2018-05-31T01:22:38.727Z,19.40
2018-05-31T01:25:13.556Z,19.40
2018-05-31T01:27:48.313Z,19.50
2018-05-31T01:30:22.500Z,19.50
2018-05-31T01:32:58.554Z,19.50
2018-05-31T01:35:33.346Z,19.50
2018-05-31T01:38:19.277Z,19.50
2018-05-31T01:40:53.431Z,19.50
2018-05-31T01:43:29.002Z,19.50
2018-05-31T01:46:03.419Z,19.50
2018-05-31T01:48:37.577Z,19.50
2018-05-31T01:51:11.545Z,19.50
2018-05-31T01:53:46.427Z,19.50
2018-05-31T01:56:20.422Z,19.50
2018-05-31T01:58:56.662Z,19.40
2018-05-31T02:01:33.673Z,19.40
2018-05-31T02:04:07.776Z,19.40
2018-05-31T02:06:42.443Z,19.40
2018-05-31T02:09:17.943Z,19.40
2018-05-31T02:11:52.976Z,19.40
2018-05-31T02:14:27.088Z,19.40
2018-05-31T02:17:01.863Z,19.30
2018-05-31T02:19:36.732Z,19.30
2018-05-31T02:22:11.769Z,19.20
2018-05-31T02:24:51.416Z,19.20
2018-05-31T02:27:25.621Z,19.30
2018-05-31T02:30:00.347Z,19.30
2018-05-31T02:32:34.954Z,19.20
2018-05-31T02:35:08.822Z,19.20
2018-05-31T02:37:42.938Z,19.20
2018-05-31T02:40:20.272Z,19.20
2018-05-31T02:42:54.057Z,19.10
2018-05-31T02:45:29.025Z,19.20
2018-05-31T02:48:03.017Z,19.10
2018-05-31T02:50:37.232Z,19.20
2018-05-31T02:53:11.199Z,19.10
2018-05-31T02:55:46.032Z,19.20
2018-05-31T02:58:21.835Z,19.20
2018-05-31T03:00:56.358Z,19.10
2018-05-31T03:03:32.510Z,19.10
2018-05-31T03:06:12.083Z,19.00
2018-05-31T03:08:49.196Z,19.00
2018-05-31T03:11:23.417Z,19.00
2018-05-31T03:13:57.626Z,19.00
2018-05-31T03:16:31.638Z,19.00
2018-05-31T03:19:05.548Z,19.00
2018-05-31T03:21:40.254Z,19.00
2018-05-31T03:24:14.493Z,19.00
2018-05-31T03:26:48.580Z,19.00
2018-05-31T03:29:23.380Z,18.90
2018-05-31T03:31:58.162Z,18.90
2018-05-31T03:34:32.975Z,19.00
2018-05-31T03:37:06.947Z,18.90
2018-05-31T03:39:42.751Z,18.90
2018-05-31T03:42:18.813Z,18.90
2018-05-31T03:44:53.040Z,18.90
2018-05-31T03:47:27.032Z,18.90
2018-05-31T03:50:02.181Z,18.90
2018-05-31T03:52:36.124Z,18.90
2018-05-31T03:55:10.461Z,18.90
2018-05-31T03:57:44.724Z,19.00
2018-05-31T04:00:19.001Z,18.90
2018-05-31T04:02:53.431Z,19.00
2018-05-31T04:05:28.109Z,18.90
2018-05-31T04:08:04.966Z,19.00
2018-05-31T04:10:39.598Z,19.00
2018-05-31T04:13:13.857Z,19.10
2018-05-31T04:15:47.979Z,19.10
2018-05-31T04:18:22.214Z,19.10
2018-05-31T04:20:56.161Z,19.10
2018-05-31T04:23:30.317Z,19.20
2018-05-31T04:26:04.957Z,19.20
2018-05-31T04:28:39.159Z,19.20
2018-05-31T04:31:13.487Z,19.20
2018-05-31T04:33:47.640Z,19.20
2018-05-31T04:36:21.747Z,19.20
2018-05-31T04:38:55.951Z,19.20
2018-05-31T04:41:30.900Z,19.20
2018-05-31T04:44:10.755Z,19.20
2018-05-31T04:46:44.963Z,19.20
2018-05-31T04:49:22.379Z,19.20
2018-05-31T04:51:57.141Z,19.20
2018-05-31T04:54:31.911Z,19.20
2018-05-31T04:57:06.377Z,19.20
2018-05-31T04:59:40.247Z,19.30
2018-05-31T05:02:14.278Z,19.30
2018-05-31T05:04:49.180Z,19.40
2018-05-31T05:07:23.303Z,19.30
2018-05-31T05:09:58.547Z,19.40
2018-05-31T05:12:33.573Z,19.50
2018-05-31T05:15:07.689Z,19.50
2018-05-31T05:17:41.830Z,19.60
2018-05-31T05:20:15.852Z,19.70
2018-05-31T05:22:50.532Z,20.00
2018-05-31T05:25:25.317Z,20.10
2018-05-31T05:27:59.482Z,20.00
2018-05-31T05:30:33.494Z,20.10
2018-05-31T05:33:08.608Z,20.10
2018-05-31T05:35:42.540Z,20.10
2018-05-31T05:38:17.462Z,20.20
2018-05-31T05:40:51.526Z,20.20
2018-05-31T05:43:25.738Z,20.30
2018-05-31T05:46:01.801Z,20.30
2018-05-31T05:48:36.897Z,20.40
2018-05-31T05:51:11.091Z,20.30
2018-05-31T05:53:45.289Z,20.50
2018-05-31T05:56:20.076Z,20.70
2018-05-31T05:58:54.927Z,20.70
2018-05-31T06:01:29.818Z,20.80
2018-05-31T06:04:07.826Z,20.80
2018-05-31T06:06:41.933Z,20.80
2018-05-31T06:09:20.286Z,20.70
2018-05-31T06:12:03.303Z,20.60
2018-05-31T06:14:37.282Z,20.70
2018-05-31T06:17:11.325Z,20.70
2018-05-31T06:19:46.338Z,20.90
2018-05-31T06:22:20.162Z,20.90
2018-05-31T06:24:55.068Z,21.00
2018-05-31T06:27:28.939Z,21.40
2018-05-31T06:30:02.921Z,21.60
2018-05-31T06:32:37.511Z,21.70
2018-05-31T06:35:11.604Z,21.70
2018-05-31T06:37:45.500Z,21.70
2018-05-31T06:40:20.155Z,22.00
2018-05-31T06:42:54.800Z,22.10
2018-05-31T06:45:28.684Z,22.10
2018-05-31T06:48:03.419Z,22.20
2018-05-31T06:50:38.179Z,22.40
2018-05-31T06:53:12.675Z,22.70
2018-05-31T06:55:46.556Z,22.70
2018-05-31T06:58:20.273Z,23.10
2018-05-31T07:00:54.242Z,23.50
2018-05-31T07:03:28.078Z,23.60
2018-05-31T07:06:01.877Z,23.90
2018-05-31T07:08:35.785Z,24.10
2018-05-31T07:11:09.617Z,24.30
2018-05-31T07:13:43.473Z,24.40
2018-05-31T07:16:17.493Z,24.40
2018-05-31T07:18:51.415Z,24.50
2018-05-31T07:21:25.196Z,24.40
2018-05-31T07:23:59.071Z,24.20
2018-05-31T07:26:33.999Z,24.10
2018-05-31T07:29:08.046Z,23.90
2018-05-31T07:31:41.870Z,23.80
2018-05-31T07:34:15.721Z,23.70
2018-05-31T07:36:50.388Z,23.80
2018-05-31T07:39:24.145Z,23.80
2018-05-31T07:41:58.255Z,23.90
2018-05-31T07:44:33.256Z,24.10
2018-05-31T07:47:07.777Z,24.20
2018-05-31T07:49:41.801Z,24.20
2018-05-31T07:52:15.748Z,24.20
2018-05-31T07:54:49.643Z,24.40
2018-05-31T07:57:23.453Z,24.60
2018-05-31T07:59:58.140Z,25.60
2018-05-31T08:02:32.381Z,25.60
2018-05-31T08:05:06.181Z,25.50
2018-05-31T08:07:39.987Z,25.40
2018-05-31T08:10:13.954Z,25.40
2018-05-31T08:12:47.667Z,25.40
2018-05-31T08:15:21.591Z,25.30
2018-05-31T08:17:55.349Z,24.70
2018-05-31T08:20:30.080Z,24.20
2018-05-31T08:23:03.839Z,24.20
2018-05-31T08:25:37.638Z,24.10
2018-05-31T08:28:11.570Z,24.10
2018-05-31T08:30:45.483Z,24.00
2018-05-31T08:33:19.336Z,24.00
2018-05-31T08:35:53.218Z,24.00
2018-05-31T08:38:27.740Z,24.10
2018-05-31T08:41:01.694Z,24.00
2018-05-31T08:43:35.687Z,23.80
2018-05-31T08:46:09.759Z,23.70
2018-05-31T08:48:43.538Z,23.60
2018-05-31T08:51:17.537Z,23.30
2018-05-31T08:53:51.477Z,23.20
2018-05-31T08:56:25.967Z,22.50
2018-05-31T08:58:59.829Z,22.40
2018-05-31T09:01:33.660Z,22.20
2018-05-31T09:04:07.500Z,21.90
2018-05-31T09:45:35.057Z,26.00
2018-05-31T09:48:09.564Z,23.30
2018-05-31T09:50:44.197Z,20.80
2018-05-31T09:53:18.038Z,20.70
2018-05-31T09:55:52.844Z,19.30
2018-05-31T13:20:28.017Z,31.40
2018-05-31T13:23:01.893Z,33.50
2018-05-31T13:26:24.536Z,35.70
2018-05-31T13:31:14.770Z,35.60
2018-05-31T13:33:48.461Z,35.30
2018-05-31T13:36:22.220Z,35.40
2018-05-31T13:38:56.221Z,35.40
2018-05-31T13:41:30.953Z,35.40
2018-05-31T13:44:05.604Z,35.10
2018-05-31T13:46:40.234Z,34.60
2018-05-31T13:49:15.037Z,34.50
2018-05-31T13:51:50.272Z,34.20
2018-05-31T13:54:24.252Z,34.20
2018-05-31T13:56:58.100Z,34.30
2018-05-31T13:59:33.004Z,33.70
2018-05-31T14:02:06.965Z,33.70
2018-05-31T14:04:41.656Z,33.70
2018-05-31T14:07:16.420Z,32.80
2018-05-31T14:09:50.173Z,32.70
2018-05-31T14:12:25.247Z,32.40
2018-05-31T14:14:59.885Z,32.00
2018-05-31T14:17:33.649Z,32.00
2018-05-31T14:20:09.135Z,31.50
2018-05-31T14:22:43.533Z,31.40
2018-05-31T14:25:17.610Z,31.40
2018-05-31T14:27:51.530Z,31.20
2018-05-31T14:30:26.114Z,30.90
2018-05-31T14:33:00.016Z,30.90
2018-05-31T14:35:33.768Z,30.60
2018-05-31T14:38:07.736Z,30.30
2018-05-31T14:40:41.497Z,30.00
2018-05-31T14:43:15.376Z,30.10
2018-05-31T14:45:50.028Z,29.70
2018-05-31T14:48:23.929Z,29.60
2018-05-31T14:50:58.218Z,29.40
2018-05-31T14:53:32.819Z,29.10
2018-05-31T14:56:07.494Z,29.10
2018-05-31T14:58:42.376Z,28.70
2018-05-31T15:01:16.368Z,28.40
2018-05-31T15:03:50.356Z,28.10
2018-05-31T15:06:24.115Z,28.00
2018-05-31T15:08:57.870Z,27.90
2018-05-31T15:11:31.781Z,27.70
2018-05-31T15:14:06.406Z,27.40
2018-05-31T15:16:40.678Z,27.30
2018-05-31T15:19:14.318Z,27.30
2018-05-31T15:21:48.278Z,27.00
2018-05-31T15:24:22.101Z,26.90
2018-05-31T15:26:56.043Z,26.70
2018-05-31T15:29:31.343Z,26.30
2018-05-31T15:32:05.320Z,26.30
2018-05-31T15:34:39.205Z,26.50
2018-05-31T15:37:13.123Z,26.50
2018-05-31T15:39:46.953Z,26.40
2018-05-31T15:42:20.823Z,26.50
2018-05-31T15:44:54.757Z,26.40
2018-05-31T15:47:28.564Z,26.30
2018-05-31T15:50:03.226Z,26.30
2018-05-31T15:52:37.076Z,26.30
2018-05-31T15:55:10.858Z,26.20
2018-05-31T15:57:44.813Z,26.20
2018-05-31T16:00:19.458Z,26.20
2018-05-31T16:02:53.937Z,26.30
2018-05-31T16:05:27.717Z,26.30
2018-05-31T16:08:01.524Z,26.30
2018-05-31T16:10:35.430Z,26.70
2018-05-31T16:13:09.277Z,26.90
2018-05-31T16:15:43.175Z,27.00
2018-05-31T16:18:16.919Z,26.80
2018-05-31T16:20:51.685Z,26.30
2018-05-31T16:23:25.449Z,26.30
2018-05-31T16:25:59.275Z,25.90
2018-05-31T16:28:33.886Z,25.50
2018-05-31T16:31:08.568Z,25.20
2018-05-31T16:33:43.242Z,25.20
2018-05-31T16:36:17.063Z,25.10
2018-05-31T16:38:50.909Z,24.90
2018-05-31T16:41:24.722Z,24.80
2018-05-31T16:43:58.643Z,24.60
2018-05-31T16:46:32.624Z,24.50
2018-05-31T16:49:06.501Z,24.60
2018-05-31T16:51:40.202Z,24.80
2018-05-31T16:54:14.037Z,24.80
2018-05-31T16:56:48.005Z,24.90
2018-05-31T16:59:22.577Z,25.00
2018-05-31T17:01:57.163Z,25.20
2018-05-31T17:04:31.032Z,25.20
2018-05-31T17:07:04.871Z,25.20
2018-05-31T17:09:38.652Z,25.30
2018-05-31T17:12:12.590Z,25.30
2018-05-31T17:14:46.434Z,25.10
2018-05-31T17:17:20.343Z,25.00
2018-05-31T17:19:54.291Z,24.90
2018-05-31T17:22:28.098Z,25.00
2018-05-31T17:25:02.677Z,25.10
2018-05-31T17:27:36.564Z,25.00
2018-05-31T17:30:11.214Z,25.20
2018-05-31T17:32:45.078Z,25.00
2018-05-31T17:35:19.801Z,24.80
2018-05-31T17:37:53.577Z,24.70
2018-05-31T17:40:28.207Z,24.50
2018-05-31T17:43:02.053Z,24.50
2018-05-31T17:45:35.948Z,24.50
2018-05-31T17:48:09.977Z,24.50
2018-05-31T17:50:44.598Z,24.40
2018-05-31T17:53:18.444Z,24.40
2018-05-31T17:55:52.402Z,24.30
2018-05-31T17:58:26.273Z,24.30
2018-05-31T18:01:00.147Z,24.30
2018-05-31T18:03:34.040Z,24.30
2018-05-31T18:06:07.795Z,24.30
2018-05-31T18:08:41.701Z,24.30
2018-05-31T18:11:15.619Z,24.30
2018-05-31T18:13:49.461Z,24.30
2018-05-31T18:16:23.513Z,24.20
2018-05-31T18:18:57.377Z,24.10
2018-05-31T18:21:31.241Z,24.10
2018-05-31T18:24:05.060Z,24.00
2018-05-31T18:26:38.987Z,24.00
2018-05-31T18:29:14.046Z,24.00
2018-05-31T18:31:48.002Z,24.00
2018-05-31T18:34:21.961Z,23.90
2018-05-31T18:36:55.854Z,23.80
2018-05-31T18:39:29.717Z,23.80
2018-05-31T18:42:03.542Z,23.80
2018-05-31T18:44:37.389Z,23.80
2018-05-31T18:47:11.198Z,23.60
2018-05-31T18:49:45.942Z,23.60
2018-05-31T18:52:19.743Z,23.50
2018-05-31T18:54:53.653Z,23.50
2018-05-31T18:57:27.417Z,23.30
2018-05-31T19:00:01.257Z,23.20
2018-05-31T19:02:35.211Z,23.10
2018-05-31T19:05:08.830Z,23.20
2018-05-31T19:07:37.031Z,23.40
2018-05-31T19:10:05.305Z,23.50
2018-05-31T19:12:39.290Z,23.40
2018-05-31T19:15:07.511Z,23.50
2018-05-31T19:17:36.554Z,23.30
2018-05-31T19:20:04.796Z,23.30
2018-05-31T19:22:33.099Z,23.10
2018-05-31T19:25:07.074Z,22.90
2018-05-31T19:27:36.059Z,22.50
2018-05-31T19:30:10.144Z,22.50
2018-05-31T19:32:43.877Z,22.40
2018-05-31T19:35:23.492Z,22.40
2018-05-31T19:37:57.349Z,22.30
2018-05-31T19:40:31.203Z,22.20
2018-05-31T19:43:10.828Z,22.10
2018-05-31T19:45:44.823Z,22.10
2018-05-31T19:48:18.735Z,22.10
2018-05-31T19:50:52.771Z,22.00
2018-05-31T19:53:33.006Z,22.00
2018-05-31T19:56:07.058Z,21.90
2018-05-31T19:58:46.621Z,21.80
2018-05-31T20:01:26.201Z,21.70
2018-05-31T20:04:00.259Z,21.60
2018-05-31T20:06:34.370Z,21.40
2018-05-31T20:09:09.308Z,21.20
2018-05-31T20:11:43.317Z,21.20
2018-05-31T20:14:17.365Z,21.10
2018-05-31T20:16:51.968Z,20.90
2018-05-31T20:19:26.188Z,20.90
2018-05-31T20:22:01.115Z,20.70
2018-05-31T20:24:34.995Z,20.70
2018-05-31T20:27:09.055Z,20.60
2018-05-31T20:29:43.059Z,20.50
2018-05-31T20:32:17.848Z,20.30
2018-05-31T20:34:51.888Z,20.30
2018-05-31T20:37:25.858Z,20.20
2018-05-31T20:39:55.611Z,20.10
2018-05-31T20:42:23.987Z,20.10
2018-05-31T20:44:52.324Z,20.10
2018-05-31T20:47:21.447Z,19.90
2018-05-31T20:49:49.791Z,19.90
2018-05-31T20:52:19.011Z,19.90
2018-05-31T20:54:47.477Z,19.80
2018-05-31T20:57:16.588Z,19.70
2018-05-31T20:59:44.846Z,19.70
2018-05-31T21:02:13.885Z,19.70
2018-05-31T21:04:42.453Z,19.70
2018-05-31T21:07:10.952Z,19.60
2018-05-31T21:09:39.305Z,19.50
2018-05-31T21:12:08.325Z,19.40
2018-05-31T21:14:36.601Z,19.50
2018-05-31T21:17:06.075Z,19.40
2018-05-31T21:19:34.764Z,19.40
2018-05-31T21:22:05.939Z,19.40
2018-05-31T21:24:34.215Z,19.20
2018-05-31T21:27:03.470Z,19.30
2018-05-31T21:29:34.964Z,19.20
2018-05-31T21:32:03.515Z,19.20
2018-05-31T21:34:32.643Z,19.20
2018-05-31T21:37:00.921Z,19.10
2018-05-31T21:39:30.019Z,19.20
2018-05-31T21:41:58.336Z,19.10
2018-05-31T21:44:26.833Z,19.10
2018-05-31T21:46:55.254Z,19.00
2018-05-31T21:49:24.438Z,18.90
2018-05-31T21:51:52.934Z,18.90
2018-05-31T21:54:22.193Z,19.00
2018-05-31T21:56:50.718Z,19.00
2018-05-31T21:59:20.050Z,18.80
2018-05-31T22:01:48.806Z,18.90
2018-05-31T22:04:17.692Z,18.80
2018-05-31T22:06:46.053Z,18.90
2018-05-31T22:09:15.541Z,18.80
2018-05-31T22:11:44.871Z,18.80
2018-05-31T22:14:13.316Z,18.80
2018-05-31T22:16:41.820Z,18.90
2018-05-31T22:19:10.481Z,18.90
2018-05-31T22:21:38.871Z,18.80
2018-05-31T22:24:07.485Z,18.70
2018-05-31T22:26:36.994Z,18.70
2018-05-31T22:29:06.337Z,18.80
2018-05-31T22:31:34.765Z,18.70
2018-05-31T22:34:03.347Z,18.70
2018-05-31T22:36:31.838Z,18.60
2018-05-31T22:39:00.417Z,18.60
2018-05-31T22:41:29.260Z,18.50
2018-05-31T22:43:57.959Z,18.50
2018-05-31T22:46:26.255Z,18.40
2018-05-31T22:48:55.691Z,18.30
2018-05-31T22:51:24.400Z,18.30
2018-05-31T22:53:53.060Z,18.40
2018-05-31T22:56:21.389Z,18.30
2018-05-31T22:58:50.004Z,18.20
2018-05-31T23:01:19.192Z,18.20
2018-05-31T23:03:48.490Z,18.20
2018-05-31T23:06:17.697Z,18.20
2018-05-31T23:08:47.191Z,18.10
2018-05-31T23:11:16.284Z,18.00
2018-05-31T23:13:45.380Z,18.00
2018-05-31T23:16:14.913Z,18.00
2018-05-31T23:18:43.127Z,17.90
2018-05-31T23:21:12.126Z,17.80
2018-05-31T23:23:41.111Z,17.70
2018-05-31T23:26:09.465Z,17.60
2018-05-31T23:28:37.658Z,17.60
2018-05-31T23:31:05.947Z,17.50
2018-05-31T23:33:34.143Z,17.50
2018-05-31T23:36:02.423Z,17.60
2018-05-31T23:38:30.644Z,17.50
2018-05-31T23:40:59.770Z,17.40
2018-05-31T23:43:28.791Z,17.40
2018-05-31T23:45:57.045Z,17.40
2018-05-31T23:48:25.308Z,17.40
2018-05-31T23:50:54.297Z,17.30
2018-05-31T23:53:22.532Z,17.30
2018-05-31T23:55:50.716Z,17.30
2018-05-31T23:58:18.900Z,17.20
